sensor_id;sensor_type;location;lat;lon;timestamp;pressure;altitude;pressure_sealevel;temperature;humidity
10652;BME280;5374;42.742;23.266;2023-04-23T00:00:34;95404.91;;;8.69;85.96
10652;BME280;5374;42.742;23.266;2023-04-23T00:03:22;95405.84;;;8.63;85.53
10652;BME280;5374;42.742;23.266;2023-04-23T00:06:11;95398.47;;;8.48;85.36
10652;BME280;5374;42.742;23.266;2023-04-23T00:08:59;95416.03;;;8.54;85.54
10652;BME280;5374;42.742;23.266;2023-04-23T00:11:49;95412.81;;;8.52;85.71
10652;BME280;5374;42.742;23.266;2023-04-23T00:14:36;95409.03;;;8.48;86.09
10652;BME280;5374;42.742;23.266;2023-04-23T00:17:25;95405.97;;;8.39;86.90
10652;BME280;5374;42.742;23.266;2023-04-23T00:20:12;95417.69;;;8.43;87.52
10652;BME280;5374;42.742;23.266;2023-04-23T00:23:00;95411.81;;;8.41;88.08
10652;BME280;5374;42.742;23.266;2023-04-23T00:25:47;95403.78;;;8.36;88.96
10652;BME280;5374;42.742;23.266;2023-04-23T00:28:35;95401.50;;;8.28;89.69
10652;BME280;5374;42.742;23.266;2023-04-23T00:31:22;95403.31;;;8.39;90.88
10652;BME280;5374;42.742;23.266;2023-04-23T00:34:11;95404.28;;;8.33;91.94
10652;BME280;5374;42.742;23.266;2023-04-23T00:36:58;95383.13;;;8.21;92.23
10652;BME280;5374;42.742;23.266;2023-04-23T00:39:47;95403.69;;;8.31;92.69
10652;BME280;5374;42.742;23.266;2023-04-23T00:42:36;95395.31;;;8.22;92.99
10652;BME280;5374;42.742;23.266;2023-04-23T00:45:26;95378.69;;;8.10;93.67
10652;BME280;5374;42.742;23.266;2023-04-23T00:48:16;95389.84;;;8.12;93.77
10652;BME280;5374;42.742;23.266;2023-04-23T00:51:04;95405.09;;;8.22;93.85
10652;BME280;5374;42.742;23.266;2023-04-23T00:53:52;95391.19;;;8.15;94.07
10652;BME280;5374;42.742;23.266;2023-04-23T00:56:41;95398.41;;;8.19;93.66
10652;BME280;5374;42.742;23.266;2023-04-23T00:59:30;95405.09;;;8.22;93.42
10652;BME280;5374;42.742;23.266;2023-04-23T01:02:17;95404.75;;;8.18;93.83
10652;BME280;5374;42.742;23.266;2023-04-23T01:05:06;95409.22;;;8.18;93.82
10652;BME280;5374;42.742;23.266;2023-04-23T01:07:55;95402.00;;;8.13;94.24
10652;BME280;5374;42.742;23.266;2023-04-23T01:10:43;95405.72;;;8.12;94.70
10652;BME280;5374;42.742;23.266;2023-04-23T01:13:32;95379.97;;;7.96;94.92
10652;BME280;5374;42.742;23.266;2023-04-23T01:16:20;95392.41;;;7.96;95.60
10652;BME280;5374;42.742;23.266;2023-04-23T01:19:10;95396.88;;;7.95;95.43
10652;BME280;5374;42.742;23.266;2023-04-23T01:21:59;95391.50;;;7.90;95.64
10652;BME280;5374;42.742;23.266;2023-04-23T01:24:48;95373.81;;;7.79;95.95
10652;BME280;5374;42.742;23.266;2023-04-23T01:27:37;95410.91;;;7.96;96.15
10652;BME280;5374;42.742;23.266;2023-04-23T01:30:25;95399.53;;;7.95;96.13
10652;BME280;5374;42.742;23.266;2023-04-23T01:33:13;95411.28;;;7.87;96.80
10652;BME280;5374;42.742;23.266;2023-04-23T01:36:01;95403.34;;;7.87;97.70
10652;BME280;5374;42.742;23.266;2023-04-23T01:38:49;95406.22;;;7.86;98.06
10652;BME280;5374;42.742;23.266;2023-04-23T01:41:38;95401.41;;;7.83;98.20
10652;BME280;5374;42.742;23.266;2023-04-23T01:44:25;95394.28;;;7.72;98.18
10652;BME280;5374;42.742;23.266;2023-04-23T01:47:12;95401.06;;;7.79;98.42
10652;BME280;5374;42.742;23.266;2023-04-23T01:49:59;95389.47;;;7.69;98.48
10652;BME280;5374;42.742;23.266;2023-04-23T01:52:47;95430.38;;;7.78;98.63
10652;BME280;5374;42.742;23.266;2023-04-23T01:55:37;95417.38;;;7.76;99.75
10652;BME280;5374;42.742;23.266;2023-04-23T01:58:25;95341.41;;;7.20;99.82
10652;BME280;5374;42.742;23.266;2023-04-23T02:01:12;95423.13;;;7.73;99.97
10652;BME280;5374;42.742;23.266;2023-04-23T02:03:59;95387.53;;;7.52;100.00
10652;BME280;5374;42.742;23.266;2023-04-23T02:06:48;95417.50;;;7.70;100.00
10652;BME280;5374;42.742;23.266;2023-04-23T02:09:36;95415.00;;;7.63;100.00
10652;BME280;5374;42.742;23.266;2023-04-23T02:12:23;95418.31;;;7.59;100.00
10652;BME280;5374;42.742;23.266;2023-04-23T02:15:12;95411.66;;;7.56;100.00
10652;BME280;5374;42.742;23.266;2023-04-23T02:18:01;95378.03;;;7.28;100.00
10652;BME280;5374;42.742;23.266;2023-04-23T02:20:49;95417.63;;;7.51;99.77
10652;BME280;5374;42.742;23.266;2023-04-23T02:23:36;95409.34;;;7.48;98.64
10652;BME280;5374;42.742;23.266;2023-04-23T02:26:23;95410.66;;;7.45;98.69
10652;BME280;5374;42.742;23.266;2023-04-23T02:29:13;95413.75;;;7.42;98.07
10652;BME280;5374;42.742;23.266;2023-04-23T02:32:01;95424.63;;;7.46;97.82
10652;BME280;5374;42.742;23.266;2023-04-23T02:34:48;95425.34;;;7.41;97.65
10652;BME280;5374;42.742;23.266;2023-04-23T02:37:36;95359.91;;;6.97;97.08
10652;BME280;5374;42.742;23.266;2023-04-23T02:40:24;95419.81;;;7.19;96.76
10652;BME280;5374;42.742;23.266;2023-04-23T02:43:11;95430.75;;;7.35;96.78
10652;BME280;5374;42.742;23.266;2023-04-23T02:45:58;95422.34;;;7.26;97.15
10652;BME280;5374;42.742;23.266;2023-04-23T02:48:54;95410.06;;;7.20;97.06
10652;BME280;5374;42.742;23.266;2023-04-23T02:51:41;95428.19;;;7.28;97.11
10652;BME280;5374;42.742;23.266;2023-04-23T02:54:28;95411.56;;;7.16;96.87
10652;BME280;5374;42.742;23.266;2023-04-23T02:57:20;95426.25;;;7.24;97.13
10652;BME280;5374;42.742;23.266;2023-04-23T03:00:08;95433.84;;;7.20;96.85
10652;BME280;5374;42.742;23.266;2023-04-23T03:02:57;95438.31;;;7.19;96.67
10652;BME280;5374;42.742;23.266;2023-04-23T03:05:46;95433.47;;;7.16;96.16
10652;BME280;5374;42.742;23.266;2023-04-23T03:08:33;95440.03;;;7.14;95.89
10652;BME280;5374;42.742;23.266;2023-04-23T03:11:21;95417.16;;;6.96;95.60
10652;BME280;5374;42.742;23.266;2023-04-23T03:14:08;95435.50;;;7.03;95.72
10652;BME280;5374;42.742;23.266;2023-04-23T03:16:55;95443.66;;;7.01;95.36
10652;BME280;5374;42.742;23.266;2023-04-23T03:19:42;95435.94;;;6.88;94.37
10652;BME280;5374;42.742;23.266;2023-04-23T03:22:31;95446.41;;;6.95;94.02
10652;BME280;5374;42.742;23.266;2023-04-23T03:25:18;95434.00;;;6.83;93.94
10652;BME280;5374;42.742;23.266;2023-04-23T03:28:07;95446.88;;;6.92;93.98
10652;BME280;5374;42.742;23.266;2023-04-23T03:30:54;95446.28;;;6.90;93.98
10652;BME280;5374;42.742;23.266;2023-04-23T03:33:41;95432.38;;;6.82;94.48
10652;BME280;5374;42.742;23.266;2023-04-23T03:36:28;95447.91;;;6.91;95.56
10652;BME280;5374;42.742;23.266;2023-04-23T03:39:18;95432.81;;;6.79;96.23
10652;BME280;5374;42.742;23.266;2023-04-23T03:42:05;95450.91;;;6.94;96.84
10652;BME280;5374;42.742;23.266;2023-04-23T03:44:53;95458.69;;;7.01;97.41
10652;BME280;5374;42.742;23.266;2023-04-23T03:47:40;95458.72;;;7.12;97.46
10652;BME280;5374;42.742;23.266;2023-04-23T03:50:27;95448.97;;;7.13;97.43
10652;BME280;5374;42.742;23.266;2023-04-23T03:53:16;95449.31;;;7.16;97.14
10652;BME280;5374;42.742;23.266;2023-04-23T03:56:05;95458.06;;;7.29;97.37
10652;BME280;5374;42.742;23.266;2023-04-23T03:58:52;95459.56;;;7.36;97.05
10652;BME280;5374;42.742;23.266;2023-04-23T04:01:39;95464.53;;;7.44;96.68
10652;BME280;5374;42.742;23.266;2023-04-23T04:04:26;95468.53;;;7.59;95.64
10652;BME280;5374;42.742;23.266;2023-04-23T04:07:14;95446.13;;;7.61;94.13
10652;BME280;5374;42.742;23.266;2023-04-23T04:10:01;95448.97;;;7.83;92.74
10652;BME280;5374;42.742;23.266;2023-04-23T04:12:50;95456.91;;;8.75;90.81
10652;BME280;5374;42.742;23.266;2023-04-23T04:15:45;95440.44;;;10.28;78.79
10652;BME280;5374;42.742;23.266;2023-04-23T04:18:34;95459.50;;;11.97;68.08
10652;BME280;5374;42.742;23.266;2023-04-23T04:21:21;95466.03;;;13.14;62.96
10652;BME280;5374;42.742;23.266;2023-04-23T04:24:08;95462.03;;;14.13;59.69
10652;BME280;5374;42.742;23.266;2023-04-23T04:26:56;95465.63;;;15.51;55.07
10652;BME280;5374;42.742;23.266;2023-04-23T04:29:44;95467.88;;;16.97;49.82
10652;BME280;5374;42.742;23.266;2023-04-23T04:32:31;95493.00;;;18.41;46.09
10652;BME280;5374;42.742;23.266;2023-04-23T04:35:19;95475.34;;;19.54;42.57
10652;BME280;5374;42.742;23.266;2023-04-23T04:38:06;95497.94;;;20.73;40.28
10652;BME280;5374;42.742;23.266;2023-04-23T04:40:54;95496.06;;;21.73;37.62
10652;BME280;5374;42.742;23.266;2023-04-23T04:43:43;95498.28;;;22.61;35.79
10652;BME280;5374;42.742;23.266;2023-04-23T04:46:32;95518.38;;;23.57;34.18
10652;BME280;5374;42.742;23.266;2023-04-23T04:49:19;95514.78;;;24.28;32.71
10652;BME280;5374;42.742;23.266;2023-04-23T04:52:06;95520.16;;;25.06;31.17
10652;BME280;5374;42.742;23.266;2023-04-23T04:54:54;95525.34;;;25.87;30.23
10652;BME280;5374;42.742;23.266;2023-04-23T04:57:41;95521.19;;;26.62;29.16
10652;BME280;5374;42.742;23.266;2023-04-23T05:00:29;95517.56;;;27.36;28.55
10652;BME280;5374;42.742;23.266;2023-04-23T05:03:17;95530.03;;;28.23;27.26
10652;BME280;5374;42.742;23.266;2023-04-23T05:06:05;95528.56;;;28.90;25.99
10652;BME280;5374;42.742;23.266;2023-04-23T05:08:52;95524.19;;;29.58;25.66
10652;BME280;5374;42.742;23.266;2023-04-23T05:11:39;95517.88;;;30.14;24.78
10652;BME280;5374;42.742;23.266;2023-04-23T05:14:26;95514.50;;;31.02;24.10
10652;BME280;5374;42.742;23.266;2023-04-23T05:17:13;95518.84;;;31.54;23.21
10652;BME280;5374;42.742;23.266;2023-04-23T05:20:02;95524.06;;;32.49;22.51
10652;BME280;5374;42.742;23.266;2023-04-23T05:22:50;95542.66;;;33.45;21.53
10652;BME280;5374;42.742;23.266;2023-04-23T05:25:37;95535.03;;;34.27;20.72
10652;BME280;5374;42.742;23.266;2023-04-23T05:28:24;95538.72;;;34.83;20.49
10652;BME280;5374;42.742;23.266;2023-04-23T05:31:11;95533.88;;;35.49;20.02
10652;BME280;5374;42.742;23.266;2023-04-23T05:33:58;95528.34;;;35.53;19.79
10652;BME280;5374;42.742;23.266;2023-04-23T05:36:47;95533.66;;;35.29;20.10
10652;BME280;5374;42.742;23.266;2023-04-23T05:39:34;95528.41;;;35.46;20.21
10652;BME280;5374;42.742;23.266;2023-04-23T05:42:21;95518.28;;;36.11;19.77
10652;BME280;5374;42.742;23.266;2023-04-23T05:45:09;95527.44;;;36.99;18.99
10652;BME280;5374;42.742;23.266;2023-04-23T05:47:56;95545.63;;;37.74;18.18
10652;BME280;5374;42.742;23.266;2023-04-23T05:50:43;95531.09;;;37.89;18.12
10652;BME280;5374;42.742;23.266;2023-04-23T05:53:32;95542.00;;;37.77;18.04
10652;BME280;5374;42.742;23.266;2023-04-23T05:56:19;95541.09;;;37.37;18.67
10652;BME280;5374;42.742;23.266;2023-04-23T05:59:06;95543.56;;;36.77;18.58
10652;BME280;5374;42.742;23.266;2023-04-23T06:01:53;95532.03;;;35.80;19.96
10652;BME280;5374;42.742;23.266;2023-04-23T06:04:40;95528.97;;;34.57;20.52
10652;BME280;5374;42.742;23.266;2023-04-23T06:07:27;95523.38;;;33.09;21.63
10652;BME280;5374;42.742;23.266;2023-04-23T06:10:19;95522.78;;;32.22;21.96
10652;BME280;5374;42.742;23.266;2023-04-23T06:13:13;95513.63;;;30.90;23.60
10652;BME280;5374;42.742;23.266;2023-04-23T06:16:00;95520.88;;;30.02;24.80
10652;BME280;5374;42.742;23.266;2023-04-23T06:18:47;95525.66;;;28.03;26.75
10652;BME280;5374;42.742;23.266;2023-04-23T06:21:34;95520.50;;;27.12;28.76
10652;BME280;5374;42.742;23.266;2023-04-23T06:24:21;95520.41;;;26.77;29.45
10652;BME280;5374;42.742;23.266;2023-04-23T06:27:10;95507.53;;;26.46;30.06
10652;BME280;5374;42.742;23.266;2023-04-23T06:29:57;95518.13;;;25.79;30.10
10652;BME280;5374;42.742;23.266;2023-04-23T06:32:44;95515.88;;;24.60;32.25
10652;BME280;5374;42.742;23.266;2023-04-23T06:35:31;95515.56;;;24.28;32.26
10652;BME280;5374;42.742;23.266;2023-04-23T06:38:18;95513.75;;;23.78;33.41
10652;BME280;5374;42.742;23.266;2023-04-23T06:41:07;95512.31;;;23.51;34.59
10652;BME280;5374;42.742;23.266;2023-04-23T06:43:56;95511.38;;;23.77;33.53
10652;BME280;5374;42.742;23.266;2023-04-23T06:46:43;95508.19;;;23.75;33.82
10652;BME280;5374;42.742;23.266;2023-04-23T06:49:30;95511.09;;;23.49;34.22
10652;BME280;5374;42.742;23.266;2023-04-23T06:52:17;95508.94;;;23.34;34.53
10652;BME280;5374;42.742;23.266;2023-04-23T06:55:11;95491.09;;;23.33;35.58
10652;BME280;5374;42.742;23.266;2023-04-23T06:57:58;95469.84;;;23.43;34.97
10652;BME280;5374;42.742;23.266;2023-04-23T19:56:33;95221.50;;;13.40;58.67
10652;BME280;5374;42.742;23.266;2023-04-23T19:59:20;95223.66;;;13.33;58.98
10652;BME280;5374;42.742;23.266;2023-04-23T20:02:07;95215.16;;;13.26;58.87
10652;BME280;5374;42.742;23.266;2023-04-23T20:04:54;95219.44;;;13.27;58.97
10652;BME280;5374;42.742;23.266;2023-04-23T20:07:42;95229.56;;;13.25;58.80
10652;BME280;5374;42.742;23.266;2023-04-23T20:10:29;95226.91;;;13.25;58.86
10652;BME280;5374;42.742;23.266;2023-04-23T20:13:19;95225.31;;;13.24;58.93
10652;BME280;5374;42.742;23.266;2023-04-23T20:16:08;95227.44;;;13.17;59.33
10652;BME280;5374;42.742;23.266;2023-04-23T20:18:57;95222.88;;;13.12;59.21
10652;BME280;5374;42.742;23.266;2023-04-23T20:21:44;95213.59;;;13.05;59.20
10652;BME280;5374;42.742;23.266;2023-04-23T20:24:31;95218.88;;;13.15;58.96
10652;BME280;5374;42.742;23.266;2023-04-23T20:27:20;95214.13;;;13.01;59.26
10652;BME280;5374;42.742;23.266;2023-04-23T20:30:10;95214.13;;;13.01;59.46
10652;BME280;5374;42.742;23.266;2023-04-23T20:32:59;95218.94;;;12.99;59.13
10652;BME280;5374;42.742;23.266;2023-04-23T20:35:47;95227.47;;;12.96;59.57
10652;BME280;5374;42.742;23.266;2023-04-23T20:38:34;95221.06;;;12.92;59.05
10652;BME280;5374;42.742;23.266;2023-04-23T20:41:23;95223.22;;;12.80;59.23
10652;BME280;5374;42.742;23.266;2023-04-23T20:44:10;95119.41;;;12.14;59.09
10652;BME280;5374;42.742;23.266;2023-04-23T20:46:59;95225.09;;;12.80;58.61
10652;BME280;5374;42.742;23.266;2023-04-23T20:49:49;95116.50;;;12.11;58.59
10652;BME280;5374;42.742;23.266;2023-04-23T20:52:36;95223.75;;;12.72;58.55
10652;BME280;5374;42.742;23.266;2023-04-23T20:55:23;95234.16;;;12.68;58.70
10652;BME280;5374;42.742;23.266;2023-04-23T20:58:11;95227.50;;;12.61;58.66
10652;BME280;5374;42.742;23.266;2023-04-23T21:00:58;95240.53;;;12.67;58.25
10652;BME280;5374;42.742;23.266;2023-04-23T21:03:46;95241.38;;;12.63;58.27
10652;BME280;5374;42.742;23.266;2023-04-23T21:06:34;95241.09;;;12.64;58.14
10652;BME280;5374;42.742;23.266;2023-04-23T21:09:21;95249.91;;;12.65;58.02
10652;BME280;5374;42.742;23.266;2023-04-23T21:12:08;95250.66;;;12.65;58.01
10652;BME280;5374;42.742;23.266;2023-04-23T21:14:55;95251.22;;;12.52;58.29
10652;BME280;5374;42.742;23.266;2023-04-23T21:17:45;95250.94;;;12.49;58.27
10652;BME280;5374;42.742;23.266;2023-04-23T21:20:34;95242.16;;;12.38;58.53
10652;BME280;5374;42.742;23.266;2023-04-23T21:23:21;95242.69;;;12.40;58.41
10652;BME280;5374;42.742;23.266;2023-04-23T21:26:08;95256.28;;;12.39;58.64
10652;BME280;5374;42.742;23.266;2023-04-23T21:28:55;95248.53;;;12.37;58.69
10652;BME280;5374;42.742;23.266;2023-04-23T21:31:44;95260.53;;;12.35;58.74
10652;BME280;5374;42.742;23.266;2023-04-23T21:34:32;95242.91;;;12.23;58.75
10652;BME280;5374;42.742;23.266;2023-04-23T21:37:20;95261.59;;;12.33;58.68
10652;BME280;5374;42.742;23.266;2023-04-23T21:40:08;95258.91;;;12.33;58.80
10652;BME280;5374;42.742;23.266;2023-04-23T21:42:55;95248.25;;;12.23;58.66
10652;BME280;5374;42.742;23.266;2023-04-23T21:45:43;95253.84;;;12.27;58.84
10652;BME280;5374;42.742;23.266;2023-04-23T21:48:30;95232.81;;;12.15;58.40
10652;BME280;5374;42.742;23.266;2023-04-23T21:51:18;95270.38;;;12.34;58.29
10652;BME280;5374;42.742;23.266;2023-04-23T21:54:08;95274.66;;;12.40;58.41
10652;BME280;5374;42.742;23.266;2023-04-23T21:56:55;95272.78;;;12.41;58.22
10652;BME280;5374;42.742;23.266;2023-04-23T21:59:42;95287.97;;;12.50;57.98
10652;BME280;5374;42.742;23.266;2023-04-23T22:02:29;95278.91;;;12.46;58.73
10652;BME280;5374;42.742;23.266;2023-04-23T22:05:17;95279.69;;;12.47;60.26
10652;BME280;5374;42.742;23.266;2023-04-23T22:08:05;95282.88;;;12.44;60.77
10652;BME280;5374;42.742;23.266;2023-04-23T22:10:56;95276.47;;;12.29;61.22
10652;BME280;5374;42.742;23.266;2023-04-23T22:13:43;95279.38;;;12.23;61.33
10652;BME280;5374;42.742;23.266;2023-04-23T22:16:30;95275.13;;;12.22;61.52
10652;BME280;5374;42.742;23.266;2023-04-23T22:19:19;95280.72;;;12.25;62.50
10652;BME280;5374;42.742;23.266;2023-04-23T22:22:06;95271.13;;;12.14;62.83
10652;BME280;5374;42.742;23.266;2023-04-23T22:24:53;95259.41;;;12.05;63.44
10652;BME280;5374;42.742;23.266;2023-04-23T22:27:42;95239.06;;;11.74;64.42
10652;BME280;5374;42.742;23.266;2023-04-23T22:30:29;95207.63;;;11.60;64.21
10652;BME280;5374;42.742;23.266;2023-04-23T22:33:16;95224.19;;;11.78;63.72
10652;BME280;5374;42.742;23.266;2023-04-23T22:36:03;95235.91;;;11.82;64.37
10652;BME280;5374;42.742;23.266;2023-04-23T22:38:51;95209.03;;;11.78;63.15
10652;BME280;5374;42.742;23.266;2023-04-23T22:41:38;95217.31;;;11.87;62.57
10652;BME280;5374;42.742;23.266;2023-04-23T22:44:29;95217.84;;;11.84;60.93
10652;BME280;5374;42.742;23.266;2023-04-23T22:47:16;95206.63;;;11.77;60.50
10652;BME280;5374;42.742;23.266;2023-04-23T22:50:04;95214.41;;;11.88;59.98
10652;BME280;5374;42.742;23.266;2023-04-23T22:52:52;95230.13;;;11.95;60.19
10652;BME280;5374;42.742;23.266;2023-04-23T22:55:39;95246.88;;;12.01;59.64
10652;BME280;5374;42.742;23.266;2023-04-23T22:58:26;95251.41;;;12.05;58.73
10652;BME280;5374;42.742;23.266;2023-04-23T23:01:15;95252.50;;;12.09;58.74
10652;BME280;5374;42.742;23.266;2023-04-23T23:04:02;95265.03;;;12.19;58.82
10652;BME280;5374;42.742;23.266;2023-04-23T23:06:51;95256.00;;;12.35;59.17
10652;BME280;5374;42.742;23.266;2023-04-23T23:09:38;95249.34;;;12.38;59.08
10652;BME280;5374;42.742;23.266;2023-04-23T23:12:25;95222.16;;;12.20;58.75
10652;BME280;5374;42.742;23.266;2023-04-23T23:15:12;95249.06;;;12.49;60.20
10652;BME280;5374;42.742;23.266;2023-04-23T23:18:01;95251.19;;;12.47;64.48
10652;BME280;5374;42.742;23.266;2023-04-23T23:20:48;95241.88;;;12.45;66.02
10652;BME280;5374;42.742;23.266;2023-04-23T23:23:35;95228.56;;;12.45;67.02
10652;BME280;5374;42.742;23.266;2023-04-23T23:26:22;95233.34;;;12.22;68.20
10652;BME280;5374;42.742;23.266;2023-04-23T23:29:09;95227.22;;;12.27;67.11
10652;BME280;5374;42.742;23.266;2023-04-23T23:31:56;95221.09;;;12.26;66.65
10652;BME280;5374;42.742;23.266;2023-04-23T23:34:45;95224.81;;;12.20;66.15
10652;BME280;5374;42.742;23.266;2023-04-23T23:37:32;95202.16;;;12.03;66.06
10652;BME280;5374;42.742;23.266;2023-04-23T23:40:19;95215.53;;;12.18;66.81
10652;BME280;5374;42.742;23.266;2023-04-23T23:43:07;95210.72;;;12.20;66.98
10652;BME280;5374;42.742;23.266;2023-04-23T23:45:54;95200.34;;;12.18;68.11
10652;BME280;5374;42.742;23.266;2023-04-23T23:48:41;95200.84;;;12.20;69.50
10652;BME280;5374;42.742;23.266;2023-04-23T23:51:30;95198.50;;;12.19;69.96
10652;BME280;5374;42.742;23.266;2023-04-23T23:54:17;95190.22;;;12.15;70.76
10652;BME280;5374;42.742;23.266;2023-04-23T23:57:04;95173.69;;;12.03;70.67
10652;BME280;5374;42.742;23.266;2023-04-23T23:59:51;95190.50;;;12.14;71.01
